sensor_id;sensor_type;location;lat;lon;timestamp;temperature;humidity
13458;DHT22;6801;53.018;11.560;2023-09-19T00:00:21;20.60;68.40
13458;DHT22;6801;53.018;11.560;2023-09-19T00:02:54;20.60;68.50
13458;DHT22;6801;53.018;11.560;2023-09-19T00:05:23;20.60;68.50
13458;DHT22;6801;53.018;11.560;2023-09-19T00:07:53;20.60;68.40
13458;DHT22;6801;53.018;11.560;2023-09-19T00:10:20;20.60;68.30
13458;DHT22;6801;53.018;11.560;2023-09-19T00:12:51;20.50;68.40
13458;DHT22;6801;53.018;11.560;2023-09-19T00:15:21;20.50;68.60
13458;DHT22;6801;53.018;11.560;2023-09-19T00:17:48;20.50;68.60
13458;DHT22;6801;53.018;11.560;2023-09-19T00:20:18;20.40;68.70
13458;DHT22;6801;53.018;11.560;2023-09-19T00:22:47;20.30;68.90
13458;DHT22;6801;53.018;11.560;2023-09-19T00:25:15;20.20;69.00
13458;DHT22;6801;53.018;11.560;2023-09-19T00:27:42;20.20;69.10
13458;DHT22;6801;53.018;11.560;2023-09-19T00:30:12;20.10;69.10
13458;DHT22;6801;53.018;11.560;2023-09-19T00:32:43;20.00;69.10
13458;DHT22;6801;53.018;11.560;2023-09-19T00:35:10;20.00;69.10
13458;DHT22;6801;53.018;11.560;2023-09-19T00:37:37;20.00;69.30
13458;DHT22;6801;53.018;11.560;2023-09-19T00:40:06;20.00;69.30
13458;DHT22;6801;53.018;11.560;2023-09-19T00:42:38;19.90;69.30
13458;DHT22;6801;53.018;11.560;2023-09-19T00:45:06;19.90;69.30
13458;DHT22;6801;53.018;11.560;2023-09-19T00:47:36;19.90;69.30
13458;DHT22;6801;53.018;11.560;2023-09-19T00:50:04;19.80;69.40
13458;DHT22;6801;53.018;11.560;2023-09-19T00:52:33;19.80;69.30
13458;DHT22;6801;53.018;11.560;2023-09-19T00:55:03;19.70;69.30
13458;DHT22;6801;53.018;11.560;2023-09-19T00:57:32;19.70;69.30
13458;DHT22;6801;53.018;11.560;2023-09-19T01:00:00;19.60;69.30
13458;DHT22;6801;53.018;11.560;2023-09-19T01:14:00;19.40;69.50
13458;DHT22;6801;53.018;11.560;2023-09-19T01:16:32;19.40;69.40
13458;DHT22;6801;53.018;11.560;2023-09-19T01:19:19;19.30;69.50
13458;DHT22;6801;53.018;11.560;2023-09-19T01:21:57;19.30;69.60
13458;DHT22;6801;53.018;11.560;2023-09-19T01:24:51;19.20;69.70
13458;DHT22;6801;53.018;11.560;2023-09-19T01:27:53;19.20;69.70
13458;DHT22;6801;53.018;11.560;2023-09-19T01:30:33;19.20;69.80
13458;DHT22;6801;53.018;11.560;2023-09-19T01:33:03;19.10;69.80
13458;DHT22;6801;53.018;11.560;2023-09-19T01:35:32;19.10;69.80
13458;DHT22;6801;53.018;11.560;2023-09-19T01:38:00;19.10;69.90
13458;DHT22;6801;53.018;11.560;2023-09-19T01:40:27;19.00;69.90
13458;DHT22;6801;53.018;11.560;2023-09-19T01:42:59;19.00;70.00
13458;DHT22;6801;53.018;11.560;2023-09-19T01:45:35;19.00;70.10
13458;DHT22;6801;53.018;11.560;2023-09-19T01:48:15;19.00;70.10
13458;DHT22;6801;53.018;11.560;2023-09-19T01:50:54;19.00;70.30
13458;DHT22;6801;53.018;11.560;2023-09-19T01:53:26;18.90;70.30
13458;DHT22;6801;53.018;11.560;2023-09-19T01:55:54;18.80;70.40
13458;DHT22;6801;53.018;11.560;2023-09-19T01:58:29;18.80;70.50
13458;DHT22;6801;53.018;11.560;2023-09-19T02:01:01;18.80;70.60
13458;DHT22;6801;53.018;11.560;2023-09-19T02:03:31;18.70;70.60
13458;DHT22;6801;53.018;11.560;2023-09-19T02:05:58;18.70;70.70
13458;DHT22;6801;53.018;11.560;2023-09-19T02:08:26;18.70;70.70
13458;DHT22;6801;53.018;11.560;2023-09-19T02:10:53;18.70;70.80
13458;DHT22;6801;53.018;11.560;2023-09-19T02:13:22;18.60;70.80
13458;DHT22;6801;53.018;11.560;2023-09-19T02:15:50;18.60;70.80
13458;DHT22;6801;53.018;11.560;2023-09-19T02:18:18;18.60;70.80
13458;DHT22;6801;53.018;11.560;2023-09-19T02:20:46;18.60;70.80
13458;DHT22;6801;53.018;11.560;2023-09-19T02:23:13;18.50;70.80
13458;DHT22;6801;53.018;11.560;2023-09-19T02:25:41;18.50;70.90
13458;DHT22;6801;53.018;11.560;2023-09-19T02:28:08;18.50;70.90
13458;DHT22;6801;53.018;11.560;2023-09-19T02:30:35;18.50;71.00
13458;DHT22;6801;53.018;11.560;2023-09-19T02:33:03;18.50;71.00
13458;DHT22;6801;53.018;11.560;2023-09-19T02:35:32;18.50;71.10
13458;DHT22;6801;53.018;11.560;2023-09-19T02:38:02;18.40;71.20
13458;DHT22;6801;53.018;11.560;2023-09-19T02:40:31;18.40;71.40
13458;DHT22;6801;53.018;11.560;2023-09-19T02:43:01;18.40;71.30
13458;DHT22;6801;53.018;11.560;2023-09-19T02:45:29;18.40;71.30
13458;DHT22;6801;53.018;11.560;2023-09-19T02:47:56;18.40;71.40
13458;DHT22;6801;53.018;11.560;2023-09-19T02:50:24;18.40;71.40
13458;DHT22;6801;53.018;11.560;2023-09-19T02:52:52;18.40;71.50
13458;DHT22;6801;53.018;11.560;2023-09-19T02:55:20;18.40;71.60
13458;DHT22;6801;53.018;11.560;2023-09-19T02:57:48;18.40;71.50
13458;DHT22;6801;53.018;11.560;2023-09-19T03:00:17;18.40;71.50
13458;DHT22;6801;53.018;11.560;2023-09-19T03:02:47;18.40;71.60
13458;DHT22;6801;53.018;11.560;2023-09-19T03:05:15;18.40;71.50
13458;DHT22;6801;53.018;11.560;2023-09-19T03:07:42;18.30;71.50
13458;DHT22;6801;53.018;11.560;2023-09-19T03:10:12;18.40;71.40
13458;DHT22;6801;53.018;11.560;2023-09-19T03:12:41;18.40;71.50
13458;DHT22;6801;53.018;11.560;2023-09-19T03:15:09;18.40;71.60
13458;DHT22;6801;53.018;11.560;2023-09-19T03:17:36;18.30;71.60
13458;DHT22;6801;53.018;11.560;2023-09-19T03:20:04;18.30;71.60
13458;DHT22;6801;53.018;11.560;2023-09-19T03:22:34;18.20;71.60
13458;DHT22;6801;53.018;11.560;2023-09-19T03:25:01;18.20;71.70
13458;DHT22;6801;53.018;11.560;2023-09-19T03:27:30;18.20;71.60
13458;DHT22;6801;53.018;11.560;2023-09-19T03:29:57;18.20;71.80
13458;DHT22;6801;53.018;11.560;2023-09-19T03:32:25;18.20;71.90
13458;DHT22;6801;53.018;11.560;2023-09-19T03:34:52;18.10;72.00
13458;DHT22;6801;53.018;11.560;2023-09-19T03:37:19;18.10;72.00
13458;DHT22;6801;53.018;11.560;2023-09-19T03:39:46;18.10;72.10
13458;DHT22;6801;53.018;11.560;2023-09-19T03:42:13;18.10;72.20
13458;DHT22;6801;53.018;11.560;2023-09-19T03:44:42;18.00;72.20
13458;DHT22;6801;53.018;11.560;2023-09-19T03:47:09;18.00;72.30
13458;DHT22;6801;53.018;11.560;2023-09-19T03:49:36;18.00;72.30
13458;DHT22;6801;53.018;11.560;2023-09-19T03:52:03;18.00;72.30
13458;DHT22;6801;53.018;11.560;2023-09-19T03:54:31;18.00;72.30
13458;DHT22;6801;53.018;11.560;2023-09-19T03:56:58;18.00;72.40
13458;DHT22;6801;53.018;11.560;2023-09-19T03:59:25;17.90;72.50
13458;DHT22;6801;53.018;11.560;2023-09-19T04:01:56;17.90;72.50
13458;DHT22;6801;53.018;11.560;2023-09-19T04:04:23;17.90;72.60
13458;DHT22;6801;53.018;11.560;2023-09-19T04:06:50;17.90;72.60
13458;DHT22;6801;53.018;11.560;2023-09-19T04:09:18;17.90;72.70
13458;DHT22;6801;53.018;11.560;2023-09-19T04:11:45;17.80;72.80
13458;DHT22;6801;53.018;11.560;2023-09-19T04:14:12;17.80;72.60
13458;DHT22;6801;53.018;11.560;2023-09-19T04:16:39;17.80;72.60
13458;DHT22;6801;53.018;11.560;2023-09-19T04:19:07;17.80;72.60
13458;DHT22;6801;53.018;11.560;2023-09-19T04:21:34;17.80;72.60
13458;DHT22;6801;53.018;11.560;2023-09-19T04:24:02;17.80;72.50
13458;DHT22;6801;53.018;11.560;2023-09-19T04:26:29;17.70;72.50
13458;DHT22;6801;53.018;11.560;2023-09-19T04:28:56;17.80;72.70
13458;DHT22;6801;53.018;11.560;2023-09-19T04:31:23;17.80;72.60
13458;DHT22;6801;53.018;11.560;2023-09-19T04:33:50;17.70;72.70
13458;DHT22;6801;53.018;11.560;2023-09-19T04:36:18;17.70;72.70
13458;DHT22;6801;53.018;11.560;2023-09-19T04:38:46;17.70;72.90
13458;DHT22;6801;53.018;11.560;2023-09-19T04:41:17;17.70;72.80
13458;DHT22;6801;53.018;11.560;2023-09-19T04:43:44;17.70;72.80
13458;DHT22;6801;53.018;11.560;2023-09-19T04:46:11;17.60;72.90
13458;DHT22;6801;53.018;11.560;2023-09-19T04:48:40;17.60;73.00
13458;DHT22;6801;53.018;11.560;2023-09-19T04:51:07;17.50;73.00
13458;DHT22;6801;53.018;11.560;2023-09-19T04:53:35;17.50;73.00
13458;DHT22;6801;53.018;11.560;2023-09-19T04:56:02;17.50;73.10
13458;DHT22;6801;53.018;11.560;2023-09-19T04:58:32;17.50;73.10
13458;DHT22;6801;53.018;11.560;2023-09-19T05:00:59;17.50;73.10
13458;DHT22;6801;53.018;11.560;2023-09-19T05:03:28;17.50;73.10
13458;DHT22;6801;53.018;11.560;2023-09-19T05:05:55;17.50;73.10
13458;DHT22;6801;53.018;11.560;2023-09-19T05:08:22;17.40;73.10
13458;DHT22;6801;53.018;11.560;2023-09-19T05:10:51;17.40;73.20
13458;DHT22;6801;53.018;11.560;2023-09-19T05:13:18;17.40;73.20
13458;DHT22;6801;53.018;11.560;2023-09-19T05:15:45;17.40;73.30
13458;DHT22;6801;53.018;11.560;2023-09-19T05:18:12;17.40;73.40
13458;DHT22;6801;53.018;11.560;2023-09-19T05:20:39;17.30;73.40
13458;DHT22;6801;53.018;11.560;2023-09-19T05:23:06;17.30;73.40
13458;DHT22;6801;53.018;11.560;2023-09-19T05:25:39;17.30;73.50
13458;DHT22;6801;53.018;11.560;2023-09-19T05:28:09;17.30;73.50
13458;DHT22;6801;53.018;11.560;2023-09-19T05:30:37;17.30;73.50
13458;DHT22;6801;53.018;11.560;2023-09-19T05:33:05;17.30;73.50
13458;DHT22;6801;53.018;11.560;2023-09-19T05:35:33;17.30;73.70
13458;DHT22;6801;53.018;11.560;2023-09-19T05:38:02;17.30;73.80
13458;DHT22;6801;53.018;11.560;2023-09-19T05:40:31;17.30;73.80
13458;DHT22;6801;53.018;11.560;2023-09-19T05:42:58;17.30;73.70
13458;DHT22;6801;53.018;11.560;2023-09-19T05:45:26;17.30;73.70
13458;DHT22;6801;53.018;11.560;2023-09-19T05:47:53;17.30;73.90
13458;DHT22;6801;53.018;11.560;2023-09-19T05:50:21;17.30;73.90
13458;DHT22;6801;53.018;11.560;2023-09-19T05:52:53;17.30;73.90
13458;DHT22;6801;53.018;11.560;2023-09-19T05:55:21;17.30;73.90
13458;DHT22;6801;53.018;11.560;2023-09-19T05:57:50;17.30;73.80
13458;DHT22;6801;53.018;11.560;2023-09-19T06:00:18;17.30;73.90
13458;DHT22;6801;53.018;11.560;2023-09-19T06:02:51;17.30;74.00
13458;DHT22;6801;53.018;11.560;2023-09-19T06:05:18;17.30;74.00
13458;DHT22;6801;53.018;11.560;2023-09-19T06:07:45;17.30;73.90
13458;DHT22;6801;53.018;11.560;2023-09-19T06:10:13;17.30;73.80
13458;DHT22;6801;53.018;11.560;2023-09-19T06:12:40;17.30;73.70
13458;DHT22;6801;53.018;11.560;2023-09-19T06:15:10;17.30;73.60
13458;DHT22;6801;53.018;11.560;2023-09-19T06:17:41;17.30;73.50
13458;DHT22;6801;53.018;11.560;2023-09-19T06:20:10;17.30;73.40
13458;DHT22;6801;53.018;11.560;2023-09-19T06:22:40;17.30;73.30
13458;DHT22;6801;53.018;11.560;2023-09-19T06:25:09;17.30;73.20
13458;DHT22;6801;53.018;11.560;2023-09-19T06:27:38;17.30;73.20
13458;DHT22;6801;53.018;11.560;2023-09-19T06:30:08;17.30;73.20
13458;DHT22;6801;53.018;11.560;2023-09-19T06:32:37;17.30;73.20
13458;DHT22;6801;53.018;11.560;2023-09-19T06:35:04;17.30;73.20
13458;DHT22;6801;53.018;11.560;2023-09-19T06:37:35;17.30;73.30
13458;DHT22;6801;53.018;11.560;2023-09-19T06:40:06;17.30;73.30
13458;DHT22;6801;53.018;11.560;2023-09-19T06:42:34;17.20;73.20
13458;DHT22;6801;53.018;11.560;2023-09-19T06:45:04;17.30;73.30
13458;DHT22;6801;53.018;11.560;2023-09-19T06:47:31;17.30;73.20
13458;DHT22;6801;53.018;11.560;2023-09-19T06:49:58;17.30;73.10
13458;DHT22;6801;53.018;11.560;2023-09-19T06:52:28;17.30;73.10
13458;DHT22;6801;53.018;11.560;2023-09-19T06:54:56;17.30;72.90
13458;DHT22;6801;53.018;11.560;2023-09-19T06:57:24;17.40;72.90
13458;DHT22;6801;53.018;11.560;2023-09-19T06:59:51;17.40;72.90
13458;DHT22;6801;53.018;11.560;2023-09-19T07:02:18;17.50;72.80
13458;DHT22;6801;53.018;11.560;2023-09-19T07:04:47;17.50;72.70
13458;DHT22;6801;53.018;11.560;2023-09-19T07:07:15;17.50;72.40
13458;DHT22;6801;53.018;11.560;2023-09-19T07:09:42;17.60;72.40
13458;DHT22;6801;53.018;11.560;2023-09-19T07:12:10;17.60;72.30
13458;DHT22;6801;53.018;11.560;2023-09-19T07:14:37;17.70;72.30
13458;DHT22;6801;53.018;11.560;2023-09-19T07:17:04;17.70;72.00
13458;DHT22;6801;53.018;11.560;2023-09-19T07:19:31;17.70;71.80
13458;DHT22;6801;53.018;11.560;2023-09-19T07:21:58;17.80;71.70
13458;DHT22;6801;53.018;11.560;2023-09-19T07:24:28;17.80;71.40
13458;DHT22;6801;53.018;11.560;2023-09-19T07:26:55;17.90;71.10
13458;DHT22;6801;53.018;11.560;2023-09-19T07:29:24;18.00;71.00
13458;DHT22;6801;53.018;11.560;2023-09-19T07:31:52;18.00;70.60
13458;DHT22;6801;53.018;11.560;2023-09-19T07:34:19;18.00;70.40
13458;DHT22;6801;53.018;11.560;2023-09-19T07:36:47;18.10;70.40
13458;DHT22;6801;53.018;11.560;2023-09-19T07:39:14;18.20;69.90
13458;DHT22;6801;53.018;11.560;2023-09-19T07:41:41;18.20;70.00
13458;DHT22;6801;53.018;11.560;2023-09-19T07:44:09;18.30;69.50
13458;DHT22;6801;53.018;11.560;2023-09-19T07:46:38;18.30;69.30
13458;DHT22;6801;53.018;11.560;2023-09-19T07:49:05;18.40;69.40
13458;DHT22;6801;53.018;11.560;2023-09-19T07:51:32;18.40;69.30
13458;DHT22;6801;53.018;11.560;2023-09-19T07:53:59;18.50;68.90
13458;DHT22;6801;53.018;11.560;2023-09-19T07:56:27;18.50;68.70
13458;DHT22;6801;53.018;11.560;2023-09-19T07:58:54;18.50;68.40
13458;DHT22;6801;53.018;11.560;2023-09-19T08:01:23;18.50;68.70
13458;DHT22;6801;53.018;11.560;2023-09-19T08:03:54;18.60;68.60
13458;DHT22;6801;53.018;11.560;2023-09-19T08:06:21;18.70;68.20
13458;DHT22;6801;53.018;11.560;2023-09-19T08:08:50;18.70;68.20
13458;DHT22;6801;53.018;11.560;2023-09-19T08:11:19;18.80;67.90
13458;DHT22;6801;53.018;11.560;2023-09-19T08:13:47;18.90;67.60
13458;DHT22;6801;53.018;11.560;2023-09-19T08:16:14;19.00;66.70
13458;DHT22;6801;53.018;11.560;2023-09-19T08:18:42;19.00;66.70
13458;DHT22;6801;53.018;11.560;2023-09-19T08:21:11;19.10;66.10
13458;DHT22;6801;53.018;11.560;2023-09-19T08:23:41;19.10;66.00
13458;DHT22;6801;53.018;11.560;2023-09-19T08:26:09;19.20;65.10
13458;DHT22;6801;53.018;11.560;2023-09-19T08:28:37;19.20;65.20
13458;DHT22;6801;53.018;11.560;2023-09-19T08:31:07;19.30;64.80
13458;DHT22;6801;53.018;11.560;2023-09-19T08:33:36;19.30;64.90
13458;DHT22;6801;53.018;11.560;2023-09-19T08:36:05;19.30;64.80
13458;DHT22;6801;53.018;11.560;2023-09-19T08:38:36;19.40;64.20
13458;DHT22;6801;53.018;11.560;2023-09-19T08:41:06;19.40;64.50
13458;DHT22;6801;53.018;11.560;2023-09-19T08:43:33;19.40;64.40
13458;DHT22;6801;53.018;11.560;2023-09-19T08:46:07;19.40;64.10
13458;DHT22;6801;53.018;11.560;2023-09-19T08:48:39;19.40;63.60
13458;DHT22;6801;53.018;11.560;2023-09-19T08:51:10;19.50;62.60
13458;DHT22;6801;53.018;11.560;2023-09-19T08:53:49;19.50;62.60
13458;DHT22;6801;53.018;11.560;2023-09-19T08:56:18;19.50;62.80
13458;DHT22;6801;53.018;11.560;2023-09-19T08:58:49;19.50;62.40
13458;DHT22;6801;53.018;11.560;2023-09-19T09:01:20;19.50;62.80
13458;DHT22;6801;53.018;11.560;2023-09-19T09:03:51;19.50;62.60
13458;DHT22;6801;53.018;11.560;2023-09-19T09:06:19;19.60;62.60
13458;DHT22;6801;53.018;11.560;2023-09-19T09:08:49;19.60;62.40
13458;DHT22;6801;53.018;11.560;2023-09-19T09:11:17;19.60;62.10
13458;DHT22;6801;53.018;11.560;2023-09-19T09:13:44;19.60;62.20
13458;DHT22;6801;53.018;11.560;2023-09-19T09:16:12;19.60;62.50
13458;DHT22;6801;53.018;11.560;2023-09-19T09:18:39;19.60;62.10
13458;DHT22;6801;53.018;11.560;2023-09-19T09:21:07;19.80;61.20
13458;DHT22;6801;53.018;11.560;2023-09-19T09:23:34;19.80;61.00
13458;DHT22;6801;53.018;11.560;2023-09-19T09:26:02;19.80;60.30
13458;DHT22;6801;53.018;11.560;2023-09-19T09:28:33;19.90;60.60
13458;DHT22;6801;53.018;11.560;2023-09-19T09:31:01;19.80;60.80
13458;DHT22;6801;53.018;11.560;2023-09-19T09:33:34;19.80;61.30
13458;DHT22;6801;53.018;11.560;2023-09-19T09:36:02;20.00;60.30
13458;DHT22;6801;53.018;11.560;2023-09-19T09:38:45;20.00;59.60
13458;DHT22;6801;53.018;11.560;2023-09-19T09:41:16;20.00;59.90
13458;DHT22;6801;53.018;11.560;2023-09-19T09:43:53;20.00;60.00
13458;DHT22;6801;53.018;11.560;2023-09-19T09:46:21;20.00;59.90
13458;DHT22;6801;53.018;11.560;2023-09-19T09:49:06;20.00;60.10
13458;DHT22;6801;53.018;11.560;2023-09-19T09:51:46;20.00;60.20
13458;DHT22;6801;53.018;11.560;2023-09-19T09:54:23;20.00;60.30
13458;DHT22;6801;53.018;11.560;2023-09-19T09:56:58;20.00;59.80
13458;DHT22;6801;53.018;11.560;2023-09-19T09:59:46;20.10;59.50
13458;DHT22;6801;53.018;11.560;2023-09-19T10:02:15;20.20;59.00
13458;DHT22;6801;53.018;11.560;2023-09-19T10:04:50;20.20;59.50
13458;DHT22;6801;53.018;11.560;2023-09-19T10:07:26;20.40;57.50
13458;DHT22;6801;53.018;11.560;2023-09-19T10:09:58;20.40;57.70
13458;DHT22;6801;53.018;11.560;2023-09-19T10:12:33;20.40;57.90
13458;DHT22;6801;53.018;11.560;2023-09-19T10:15:04;20.40;57.40
13458;DHT22;6801;53.018;11.560;2023-09-19T10:17:34;20.40;57.70
13458;DHT22;6801;53.018;11.560;2023-09-19T10:20:03;20.40;57.90
13458;DHT22;6801;53.018;11.560;2023-09-19T10:22:35;20.40;58.00
13458;DHT22;6801;53.018;11.560;2023-09-19T10:25:04;20.50;57.90
13458;DHT22;6801;53.018;11.560;2023-09-19T10:27:36;20.50;57.50
13458;DHT22;6801;53.018;11.560;2023-09-19T10:30:06;20.50;57.20
13458;DHT22;6801;53.018;11.560;2023-09-19T10:32:35;20.60;56.60
13458;DHT22;6801;53.018;11.560;2023-09-19T10:35:05;20.70;55.00
13458;DHT22;6801;53.018;11.560;2023-09-19T10:37:34;20.70;55.20
13458;DHT22;6801;53.018;11.560;2023-09-19T10:40:03;20.70;55.60
13458;DHT22;6801;53.018;11.560;2023-09-19T10:42:38;20.70;54.90
13458;DHT22;6801;53.018;11.560;2023-09-19T10:45:06;20.80;54.00
13458;DHT22;6801;53.018;11.560;2023-09-19T10:47:39;20.70;54.20
13458;DHT22;6801;53.018;11.560;2023-09-19T10:50:06;20.70;55.00
13458;DHT22;6801;53.018;11.560;2023-09-19T10:52:40;20.70;55.20
13458;DHT22;6801;53.018;11.560;2023-09-19T10:55:15;20.70;55.30
13458;DHT22;6801;53.018;11.560;2023-09-19T10:57:46;20.80;54.20
13458;DHT22;6801;53.018;11.560;2023-09-19T11:00:14;20.90;53.10
13458;DHT22;6801;53.018;11.560;2023-09-19T11:03:17;21.00;52.80
13458;DHT22;6801;53.018;11.560;2023-09-19T11:06:06;20.90;53.00
13458;DHT22;6801;53.018;11.560;2023-09-19T11:08:52;20.90;52.80
13458;DHT22;6801;53.018;11.560;2023-09-19T11:11:44;21.00;53.00
13458;DHT22;6801;53.018;11.560;2023-09-19T11:14:38;20.90;53.30
13458;DHT22;6801;53.018;11.560;2023-09-19T11:17:34;20.90;53.60
13458;DHT22;6801;53.018;11.560;2023-09-19T11:20:21;21.00;53.60
13458;DHT22;6801;53.018;11.560;2023-09-19T11:23:19;20.90;53.10
13458;DHT22;6801;53.018;11.560;2023-09-19T11:25:50;20.90;53.80
13458;DHT22;6801;53.018;11.560;2023-09-19T11:28:31;20.90;54.10
13458;DHT22;6801;53.018;11.560;2023-09-19T11:40:25;21.10;53.50
13458;DHT22;6801;53.018;11.560;2023-09-19T11:42:54;21.10;53.00
13458;DHT22;6801;53.018;11.560;2023-09-19T11:48:27;21.20;51.70
13458;DHT22;6801;53.018;11.560;2023-09-19T11:50:56;21.20;51.80
13458;DHT22;6801;53.018;11.560;2023-09-19T11:53:31;21.10;52.10
13458;DHT22;6801;53.018;11.560;2023-09-19T11:56:06;21.10;52.10
13458;DHT22;6801;53.018;11.560;2023-09-19T11:58:37;21.20;52.10
13458;DHT22;6801;53.018;11.560;2023-09-19T12:01:05;21.20;51.90
13458;DHT22;6801;53.018;11.560;2023-09-19T12:03:41;21.30;51.50
13458;DHT22;6801;53.018;11.560;2023-09-19T12:06:14;21.20;51.60
13458;DHT22;6801;53.018;11.560;2023-09-19T12:08:42;21.10;51.90
13458;DHT22;6801;53.018;11.560;2023-09-19T12:11:13;21.10;52.40
13458;DHT22;6801;53.018;11.560;2023-09-19T12:13:42;21.10;52.70
13458;DHT22;6801;53.018;11.560;2023-09-19T12:16:13;21.10;52.80
13458;DHT22;6801;53.018;11.560;2023-09-19T12:18:41;21.10;52.30
13458;DHT22;6801;53.018;11.560;2023-09-19T12:21:23;21.20;51.60
13458;DHT22;6801;53.018;11.560;2023-09-19T12:24:07;21.10;51.80
13458;DHT22;6801;53.018;11.560;2023-09-19T12:26:43;21.20;51.90
13458;DHT22;6801;53.018;11.560;2023-09-19T12:29:13;21.10;52.20
13458;DHT22;6801;53.018;11.560;2023-09-19T12:31:51;21.20;51.20
13458;DHT22;6801;53.018;11.560;2023-09-19T12:34:21;21.20;51.70
13458;DHT22;6801;53.018;11.560;2023-09-19T12:37:04;21.20;51.20
13458;DHT22;6801;53.018;11.560;2023-09-19T12:39:38;21.20;51.50
13458;DHT22;6801;53.018;11.560;2023-09-19T12:42:08;21.20;52.00
13458;DHT22;6801;53.018;11.560;2023-09-19T12:44:37;21.30;51.90
13458;DHT22;6801;53.018;11.560;2023-09-19T12:47:12;21.30;51.70
13458;DHT22;6801;53.018;11.560;2023-09-19T12:50:06;21.20;51.80
13458;DHT22;6801;53.018;11.560;2023-09-19T12:52:41;21.30;51.30
13458;DHT22;6801;53.018;11.560;2023-09-19T12:55:18;21.30;50.80
13458;DHT22;6801;53.018;11.560;2023-09-19T12:57:58;21.30;51.40
13458;DHT22;6801;53.018;11.560;2023-09-19T13:00:35;21.30;51.00
13458;DHT22;6801;53.018;11.560;2023-09-19T13:03:13;21.30;51.50
13458;DHT22;6801;53.018;11.560;2023-09-19T13:05:53;21.30;51.50
13458;DHT22;6801;53.018;11.560;2023-09-19T13:08:26;21.30;50.90
13458;DHT22;6801;53.018;11.560;2023-09-19T13:11:09;21.40;51.10
13458;DHT22;6801;53.018;11.560;2023-09-19T13:13:40;21.40;51.00
13458;DHT22;6801;53.018;11.560;2023-09-19T13:16:11;21.40;51.30
13458;DHT22;6801;53.018;11.560;2023-09-19T13:18:46;21.40;51.20
13458;DHT22;6801;53.018;11.560;2023-09-19T13:21:17;21.50;50.50
13458;DHT22;6801;53.018;11.560;2023-09-19T13:23:55;21.50;50.20
13458;DHT22;6801;53.018;11.560;2023-09-19T13:26:25;21.50;49.60
13458;DHT22;6801;53.018;11.560;2023-09-19T13:28:53;21.50;50.00
13458;DHT22;6801;53.018;11.560;2023-09-19T13:31:21;21.50;50.10
13458;DHT22;6801;53.018;11.560;2023-09-19T13:33:49;21.50;50.20
13458;DHT22;6801;53.018;11.560;2023-09-19T13:36:17;21.60;49.10
13458;DHT22;6801;53.018;11.560;2023-09-19T13:38:44;21.50;49.00
13458;DHT22;6801;53.018;11.560;2023-09-19T13:41:15;21.50;49.40
13458;DHT22;6801;53.018;11.560;2023-09-19T13:43:43;21.50;49.20
13458;DHT22;6801;53.018;11.560;2023-09-19T13:46:14;21.40;49.70
13458;DHT22;6801;53.018;11.560;2023-09-19T13:48:42;21.50;48.50
13458;DHT22;6801;53.018;11.560;2023-09-19T13:51:09;21.50;48.80
13458;DHT22;6801;53.018;11.560;2023-09-19T13:53:36;21.50;48.90
13458;DHT22;6801;53.018;11.560;2023-09-19T13:56:03;21.50;49.20
13458;DHT22;6801;53.018;11.560;2023-09-19T13:58:32;21.40;50.10
13458;DHT22;6801;53.018;11.560;2023-09-19T14:00:59;21.50;50.10
13458;DHT22;6801;53.018;11.560;2023-09-19T14:03:26;21.50;49.70
13458;DHT22;6801;53.018;11.560;2023-09-19T14:05:55;21.50;49.70
13458;DHT22;6801;53.018;11.560;2023-09-19T14:08:23;21.50;49.10
13458;DHT22;6801;53.018;11.560;2023-09-19T14:10:50;21.50;49.50
13458;DHT22;6801;53.018;11.560;2023-09-19T14:13:17;21.50;49.70
13458;DHT22;6801;53.018;11.560;2023-09-19T14:15:47;21.50;49.70
13458;DHT22;6801;53.018;11.560;2023-09-19T14:18:15;21.60;48.90
13458;DHT22;6801;53.018;11.560;2023-09-19T14:20:42;21.60;49.30
13458;DHT22;6801;53.018;11.560;2023-09-19T14:23:09;21.60;49.60
13458;DHT22;6801;53.018;11.560;2023-09-19T14:25:36;21.60;49.40
13458;DHT22;6801;53.018;11.560;2023-09-19T14:28:04;21.60;49.60
13458;DHT22;6801;53.018;11.560;2023-09-19T14:30:33;21.60;49.50
13458;DHT22;6801;53.018;11.560;2023-09-19T14:33:01;21.60;49.20
13458;DHT22;6801;53.018;11.560;2023-09-19T14:35:28;21.60;49.40
13458;DHT22;6801;53.018;11.560;2023-09-19T14:37:55;21.60;49.50
13458;DHT22;6801;53.018;11.560;2023-09-19T14:40:22;21.70;49.70
13458;DHT22;6801;53.018;11.560;2023-09-19T14:42:50;21.70;49.60
13458;DHT22;6801;53.018;11.560;2023-09-19T14:45:17;21.70;49.70
13458;DHT22;6801;53.018;11.560;2023-09-19T14:47:45;21.60;50.10
13458;DHT22;6801;53.018;11.560;2023-09-19T14:50:14;21.70;50.10
13458;DHT22;6801;53.018;11.560;2023-09-19T14:52:41;21.70;50.20
13458;DHT22;6801;53.018;11.560;2023-09-19T14:55:08;21.70;49.80
13458;DHT22;6801;53.018;11.560;2023-09-19T14:57:41;21.70;49.40
13458;DHT22;6801;53.018;11.560;2023-09-19T15:00:11;21.70;49.60
13458;DHT22;6801;53.018;11.560;2023-09-19T15:02:39;21.70;49.10
13458;DHT22;6801;53.018;11.560;2023-09-19T15:05:07;21.60;49.50
13458;DHT22;6801;53.018;11.560;2023-09-19T15:07:36;21.60;49.70
13458;DHT22;6801;53.018;11.560;2023-09-19T15:10:05;21.60;49.50
13458;DHT22;6801;53.018;11.560;2023-09-19T15:12:35;21.50;49.40
13458;DHT22;6801;53.018;11.560;2023-09-19T15:15:04;21.50;49.50
13458;DHT22;6801;53.018;11.560;2023-09-19T15:17:33;21.50;49.60
13458;DHT22;6801;53.018;11.560;2023-09-19T15:20:00;21.40;50.00
13458;DHT22;6801;53.018;11.560;2023-09-19T15:22:32;21.40;49.90
13458;DHT22;6801;53.018;11.560;2023-09-19T15:25:00;21.40;49.80
13458;DHT22;6801;53.018;11.560;2023-09-19T15:27:29;21.40;50.10
13458;DHT22;6801;53.018;11.560;2023-09-19T15:29:58;21.30;50.30
13458;DHT22;6801;53.018;11.560;2023-09-19T15:32:26;21.30;50.40
13458;DHT22;6801;53.018;11.560;2023-09-19T15:34:53;21.40;50.20
13458;DHT22;6801;53.018;11.560;2023-09-19T15:37:20;21.40;50.30
13458;DHT22;6801;53.018;11.560;2023-09-19T15:39:48;21.40;50.50
13458;DHT22;6801;53.018;11.560;2023-09-19T15:42:16;21.40;50.70
13458;DHT22;6801;53.018;11.560;2023-09-19T15:44:43;21.40;50.20
13458;DHT22;6801;53.018;11.560;2023-09-19T15:47:12;21.40;50.10
13458;DHT22;6801;53.018;11.560;2023-09-19T15:49:40;21.30;50.50
13458;DHT22;6801;53.018;11.560;2023-09-19T15:52:07;21.30;50.20
13458;DHT22;6801;53.018;11.560;2023-09-19T15:54:34;21.30;50.30
13458;DHT22;6801;53.018;11.560;2023-09-19T15:57:07;21.30;50.00
13458;DHT22;6801;53.018;11.560;2023-09-19T15:59:39;21.20;50.20
13458;DHT22;6801;53.018;11.560;2023-09-19T16:02:06;21.10;50.60
13458;DHT22;6801;53.018;11.560;2023-09-19T16:04:33;21.20;50.50
13458;DHT22;6801;53.018;11.560;2023-09-19T16:07:01;21.10;50.50
13458;DHT22;6801;53.018;11.560;2023-09-19T16:09:28;21.10;50.70
13458;DHT22;6801;53.018;11.560;2023-09-19T16:11:55;21.00;51.00